createdAt,value
2023-03-21T00:01:53.321Z,12.82
2023-03-21T00:04:23.570Z,13.10
2023-03-21T00:06:52.221Z,13.43
2023-03-21T00:09:21.042Z,13.07
2023-03-21T00:11:49.650Z,12.98
2023-03-21T00:14:20.521Z,13.60
2023-03-21T00:16:51.549Z,11.70
2023-03-21T00:19:21.951Z,14.48
2023-03-21T00:22:06.668Z,13.32
2023-03-21T00:24:36.643Z,12.25
2023-03-21T00:29:55.480Z,14.10
2023-03-21T00:32:23.832Z,14.27
2023-03-21T00:35:16.542Z,15.40
2023-03-21T00:37:40.861Z,13.63
2023-03-21T00:40:25.026Z,16.38
2023-03-21T00:42:55.326Z,14.02
2023-03-21T00:45:25.105Z,15.68
2023-03-21T00:47:53.735Z,13.95
2023-03-21T00:50:22.081Z,15.45
2023-03-21T00:52:50.197Z,14.20
2023-03-21T00:55:20.075Z,15.70
2023-03-21T00:57:56.275Z,14.48
2023-03-21T01:00:33.076Z,15.50
2023-03-21T01:03:21.295Z,13.70
2023-03-21T01:06:05.907Z,15.07
2023-03-21T01:08:50.708Z,14.48
2023-03-21T01:11:22.687Z,14.48
2023-03-21T01:13:56.142Z,15.27
2023-03-21T01:16:29.896Z,16.40
2023-03-21T01:18:58.070Z,16.17
2023-03-21T01:21:26.750Z,15.32
2023-03-21T01:23:55.108Z,16.10
2023-03-21T01:26:23.261Z,14.50
2023-03-21T01:28:51.775Z,17.02
2023-03-21T01:31:20.693Z,17.05
2023-03-21T01:33:50.622Z,16.48
2023-03-21T01:36:23.522Z,15.27
2023-03-21T01:38:55.090Z,15.35
2023-03-21T01:41:36.651Z,16.42
2023-03-21T01:44:18.833Z,16.25
2023-03-21T01:47:03.598Z,15.57
2023-03-21T01:49:48.724Z,16.35
2023-03-21T01:52:40.076Z,14.48
2023-03-21T01:55:16.212Z,17.02
2023-03-21T01:58:12.817Z,18.48
2023-03-21T02:01:04.942Z,21.10
2023-03-21T02:03:50.500Z,22.05
2023-03-21T02:06:46.076Z,24.05
2023-03-21T02:09:34.675Z,23.67
2023-03-21T02:12:07.341Z,25.05
2023-03-21T02:14:39.058Z,23.95
2023-03-21T02:17:23.013Z,23.40
2023-03-21T02:20:25.422Z,22.90
2023-03-21T02:23:12.538Z,20.80
2023-03-21T02:26:10.584Z,22.20
2023-03-21T02:28:43.175Z,21.88
2023-03-21T02:31:23.855Z,20.27
2023-03-21T02:34:14.758Z,21.67
2023-03-21T02:36:59.904Z,23.70
2023-03-21T02:39:33.569Z,24.63
2023-03-21T02:42:10.049Z,25.80
2023-03-21T02:44:45.793Z,24.00
2023-03-21T02:47:17.528Z,27.40
2023-03-21T02:49:51.610Z,25.15
2023-03-21T02:52:37.752Z,28.05
2023-03-21T02:55:14.486Z,24.80
2023-03-21T02:57:53.788Z,23.58
2023-03-21T03:00:25.843Z,26.63
2023-03-21T03:03:08.340Z,23.77
2023-03-21T03:05:44.989Z,24.33
2023-03-21T03:08:38.385Z,24.13
2023-03-21T03:11:25.264Z,23.70
2023-03-21T03:17:20.655Z,24.58
2023-03-21T03:20:07.196Z,23.13
2023-03-21T03:22:43.997Z,25.15
2023-03-21T03:25:23.115Z,26.77
2023-03-21T03:28:00.733Z,24.75
2023-03-21T03:30:41.218Z,24.08
2023-03-21T03:33:17.108Z,24.85
2023-03-21T03:35:55.785Z,24.20
2023-03-21T03:38:34.210Z,24.90
2023-03-21T03:41:11.733Z,25.83
2023-03-21T03:43:51.071Z,24.60
2023-03-21T03:46:25.520Z,24.65
2023-03-21T03:48:57.874Z,23.48
2023-03-21T03:51:30.674Z,24.77
2023-03-21T03:54:26.408Z,26.30
2023-03-21T03:56:57.517Z,26.67
2023-03-21T03:59:26.296Z,22.73
2023-03-21T04:02:09.501Z,24.50
2023-03-21T04:04:39.129Z,21.77
2023-03-21T04:07:08.365Z,24.83
2023-03-21T04:09:44.598Z,24.58
2023-03-21T04:12:18.633Z,25.52
2023-03-21T04:15:20.570Z,23.77
2023-03-21T04:17:55.963Z,25.35
2023-03-21T04:20:43.385Z,24.20
2023-03-21T04:23:12.897Z,24.52
2023-03-21T04:25:55.854Z,24.73
2023-03-21T04:28:33.702Z,25.90
2023-03-21T04:31:26.485Z,25.73
2023-03-21T04:34:09.913Z,25.20
2023-03-21T04:36:44.384Z,26.73
2023-03-21T04:39:13.776Z,25.92
2023-03-21T04:41:44.790Z,24.05
2023-03-21T04:44:17.085Z,24.08
2023-03-21T04:46:45.958Z,25.25
2023-03-21T04:49:15.279Z,23.00
2023-03-21T04:51:45.640Z,25.85
2023-03-21T04:54:18.780Z,26.05
2023-03-21T04:56:47.342Z,23.80
2023-03-21T04:59:18.221Z,25.48
2023-03-21T05:01:47.552Z,25.60
2023-03-21T05:04:15.829Z,25.92
2023-03-21T05:06:45.235Z,23.27
2023-03-21T05:09:14.104Z,26.75
2023-03-21T05:11:42.822Z,27.25
2023-03-21T05:14:19.831Z,26.75
2023-03-21T05:16:53.640Z,25.17
2023-03-21T05:22:19.542Z,25.63
2023-03-21T05:24:50.452Z,23.77
2023-03-21T05:27:36.340Z,24.73
2023-03-21T05:30:16.819Z,23.52
2023-03-21T05:32:47.229Z,26.27
2023-03-21T05:35:15.686Z,26.05
2023-03-21T05:37:44.490Z,24.67
2023-03-21T05:40:13.665Z,26.25
2023-03-21T05:42:46.482Z,26.52
2023-03-21T05:45:23.890Z,27.42
2023-03-21T05:47:53.065Z,24.23
2023-03-21T05:50:24.749Z,27.73
2023-03-21T05:53:10.240Z,24.15
2023-03-21T05:55:38.976Z,27.73
2023-03-21T05:58:12.193Z,23.60
2023-03-21T06:00:47.466Z,28.50
2023-03-21T06:03:26.171Z,26.27
2023-03-21T06:06:00.455Z,24.77
2023-03-21T06:08:35.383Z,27.98
2023-03-21T06:11:03.542Z,24.23
2023-03-21T06:13:34.709Z,27.40
2023-03-21T06:16:05.300Z,28.55
2023-03-21T06:18:36.283Z,24.05
2023-03-21T06:21:20.852Z,25.83
2023-03-21T06:23:51.790Z,25.98
2023-03-21T06:26:23.172Z,28.30
2023-03-21T06:28:54.698Z,28.55
2023-03-21T06:31:26.659Z,25.77
2023-03-21T06:34:01.820Z,28.45
2023-03-21T06:36:30.395Z,26.38
2023-03-21T06:38:58.556Z,26.13
2023-03-21T06:41:26.964Z,26.77
2023-03-21T06:44:01.196Z,24.83
2023-03-21T06:46:34.217Z,23.02
2023-03-21T06:49:02.841Z,23.70
2023-03-21T06:51:31.751Z,25.10
2023-03-21T06:54:08.830Z,24.40
2023-03-21T06:56:57.463Z,21.75
2023-03-21T06:59:30.588Z,22.00
2023-03-21T07:02:13.325Z,21.83
2023-03-21T07:04:47.947Z,21.83
2023-03-21T07:07:22.106Z,19.95
2023-03-21T07:09:50.478Z,19.65
2023-03-21T07:12:19.013Z,18.00
2023-03-21T07:15:07.313Z,17.02
2023-03-21T07:17:37.478Z,15.18
2023-03-21T07:20:08.870Z,16.45
2023-03-21T07:22:37.423Z,16.25
2023-03-21T07:25:07.998Z,18.25
2023-03-21T07:27:42.406Z,15.70
2023-03-21T07:30:12.435Z,16.33
2023-03-21T07:32:42.822Z,15.50
2023-03-21T07:35:13.951Z,15.73
2023-03-21T07:37:43.907Z,16.83
2023-03-21T07:40:16.696Z,17.27
2023-03-21T07:42:45.401Z,17.50
2023-03-21T07:45:16.617Z,17.23
2023-03-21T07:47:49.462Z,15.85
2023-03-21T07:50:18.102Z,16.23
2023-03-21T07:52:46.581Z,16.70
2023-03-21T07:55:14.828Z,17.23
2023-03-21T07:57:43.149Z,15.40
2023-03-21T08:00:12.790Z,16.60
2023-03-21T08:02:42.426Z,15.00
2023-03-21T08:05:12.756Z,14.48
2023-03-21T08:07:41.400Z,14.00
2023-03-21T08:10:11.730Z,11.43
2023-03-21T08:12:40.515Z,12.27
2023-03-21T08:15:09.862Z,12.55
2023-03-21T08:17:40.212Z,12.98
2023-03-21T08:20:12.948Z,14.20
2023-03-21T08:22:41.656Z,11.27
2023-03-21T08:25:13.912Z,12.63
2023-03-21T08:27:42.735Z,10.95
2023-03-21T08:30:13.133Z,13.00
2023-03-21T08:32:42.302Z,13.23
2023-03-21T08:35:16.129Z,15.23
2023-03-21T08:37:44.836Z,13.88
2023-03-21T08:40:15.856Z,12.93
2023-03-21T08:42:46.585Z,14.10
2023-03-21T08:45:16.331Z,11.48
2023-03-21T08:47:45.027Z,9.82
2023-03-21T08:50:17.558Z,11.70
2023-03-21T08:52:46.735Z,11.30
2023-03-21T08:55:16.628Z,12.52
2023-03-21T08:57:45.116Z,11.90
2023-03-21T09:00:17.946Z,11.98
2023-03-21T09:02:48.597Z,13.05
2023-03-21T09:05:18.814Z,13.18
2023-03-21T09:07:47.360Z,12.35
2023-03-21T09:10:20.941Z,13.60
2023-03-21T09:12:53.512Z,11.80
2023-03-21T09:15:24.803Z,13.70
2023-03-21T09:17:54.405Z,12.82
2023-03-21T09:20:31.509Z,11.57
2023-03-21T09:23:01.903Z,10.70
2023-03-21T09:25:31.373Z,9.45
2023-03-21T09:28:00.416Z,10.32
2023-03-21T09:30:30.273Z,10.60
2023-03-21T09:33:00.032Z,11.68
2023-03-21T09:35:30.931Z,10.13
2023-03-21T09:37:59.589Z,10.48
2023-03-21T09:40:45.249Z,10.57
2023-03-21T09:43:24.409Z,10.35
2023-03-21T09:46:01.232Z,10.75
2023-03-21T09:48:41.702Z,10.30
2023-03-21T09:51:19.124Z,9.70
2023-03-21T09:53:51.432Z,9.95
2023-03-21T09:56:21.426Z,9.75
2023-03-21T09:58:54.715Z,8.77
2023-03-21T10:01:28.497Z,9.70
2023-03-21T10:04:00.533Z,9.95
2023-03-21T10:06:32.084Z,9.38
2023-03-21T10:09:06.717Z,8.30
2023-03-21T10:11:44.369Z,8.23
2023-03-21T10:14:19.249Z,7.00
2023-03-21T10:16:50.719Z,8.63
2023-03-21T10:19:20.824Z,7.85
2023-03-21T10:22:02.341Z,8.18
2023-03-21T10:24:34.600Z,8.13
2023-03-21T10:27:04.801Z,6.70
2023-03-21T10:29:39.439Z,7.13
2023-03-21T10:32:10.816Z,7.20
2023-03-21T10:34:43.480Z,6.38
2023-03-21T10:37:15.283Z,6.38
2023-03-21T10:39:46.896Z,5.35
2023-03-21T10:42:21.635Z,5.10
2023-03-21T10:44:52.968Z,6.28
2023-03-21T10:47:22.946Z,5.30
2023-03-21T10:50:08.927Z,5.47
2023-03-21T10:52:43.935Z,7.35
2023-03-21T10:55:21.610Z,4.07
2023-03-21T10:57:54.059Z,4.50
2023-03-21T11:00:25.975Z,4.53
2023-03-21T11:02:55.741Z,5.30
2023-03-21T11:05:28.837Z,5.28
2023-03-21T11:08:01.693Z,6.10
2023-03-21T11:10:33.323Z,6.20
2023-03-21T11:13:08.242Z,6.10
2023-03-21T11:15:47.728Z,6.38
2023-03-21T11:18:19.029Z,5.78
2023-03-21T11:20:52.340Z,6.68
2023-03-21T11:23:22.943Z,5.40
2023-03-21T11:25:52.480Z,6.25
2023-03-21T11:28:23.502Z,5.20
2023-03-21T11:30:55.445Z,5.50
2023-03-21T11:33:28.240Z,5.50
2023-03-21T11:36:01.922Z,4.88
2023-03-21T11:38:37.252Z,3.60
2023-03-21T11:41:06.664Z,4.75
2023-03-21T11:43:37.598Z,4.28
2023-03-21T11:46:09.397Z,3.90
2023-03-21T11:48:41.936Z,4.60
2023-03-21T11:51:20.171Z,4.05
2023-03-21T11:53:58.895Z,4.97
2023-03-21T11:56:30.430Z,4.50
2023-03-21T11:59:13.658Z,4.45
2023-03-21T12:01:57.263Z,4.03
2023-03-21T12:04:42.539Z,4.63
2023-03-21T12:07:27.107Z,4.90
2023-03-21T12:10:10.340Z,5.20
2023-03-21T12:12:47.467Z,5.05
2023-03-21T12:15:23.722Z,4.32
2023-03-21T12:18:06.195Z,5.32
2023-03-21T12:20:41.967Z,4.65
2023-03-21T12:23:39.641Z,4.88
2023-03-21T12:26:21.089Z,4.53
2023-03-21T12:29:09.524Z,4.32
2023-03-21T12:31:50.795Z,4.80
2023-03-21T12:34:32.916Z,4.65
2023-03-21T12:37:12.605Z,4.03
2023-03-21T12:39:41.834Z,4.60
2023-03-21T12:42:35.142Z,5.03
2023-03-21T12:45:15.416Z,4.30
2023-03-21T12:47:48.807Z,5.82
2023-03-21T12:50:23.034Z,4.40
2023-03-21T12:52:55.423Z,4.80
2023-03-21T12:55:27.041Z,4.60
2023-03-21T12:58:04.342Z,4.50
2023-03-21T13:00:37.975Z,3.30
2023-03-21T13:03:12.761Z,4.30
2023-03-21T13:05:45.839Z,3.75
2023-03-21T13:08:18.824Z,4.75
2023-03-21T13:10:47.835Z,4.50
2023-03-21T13:13:27.393Z,4.38
2023-03-21T13:16:03.994Z,6.80
2023-03-21T13:18:45.735Z,5.55
2023-03-21T13:21:18.478Z,3.38
2023-03-21T13:24:01.441Z,3.97
2023-03-21T13:26:39.899Z,4.20
2023-03-21T13:29:25.150Z,3.75
2023-03-21T13:31:57.327Z,4.20
2023-03-21T13:34:27.213Z,4.28
2023-03-21T13:36:58.043Z,4.55
2023-03-21T13:39:29.267Z,5.05
2023-03-21T13:42:05.653Z,6.38
2023-03-21T13:44:42.045Z,4.65
2023-03-21T13:47:29.713Z,4.43
2023-03-21T13:50:24.260Z,4.97
2023-03-21T13:53:27.374Z,4.45
2023-03-21T13:56:10.658Z,5.10
2023-03-21T13:58:41.322Z,3.63
2023-03-21T14:01:28.682Z,4.22
2023-03-21T14:04:02.141Z,4.25
2023-03-21T14:06:40.106Z,5.18
2023-03-21T14:09:08.698Z,5.13
2023-03-21T14:11:41.899Z,6.05
2023-03-21T14:14:12.717Z,4.63
2023-03-21T14:16:42.734Z,4.53
2023-03-21T14:19:12.927Z,4.68
2023-03-21T14:21:51.642Z,4.97
2023-03-21T14:24:21.736Z,4.50
2023-03-21T14:26:52.330Z,4.40
2023-03-21T14:29:27.052Z,3.60
2023-03-21T14:32:00.324Z,3.90
2023-03-21T14:34:31.056Z,5.35
2023-03-21T14:36:59.536Z,5.13
2023-03-21T14:39:31.628Z,5.22
2023-03-21T14:42:05.781Z,5.45
2023-03-21T14:44:47.411Z,5.05
2023-03-21T14:47:24.440Z,5.47
2023-03-21T14:49:52.915Z,5.85
2023-03-21T14:52:24.948Z,5.47
2023-03-21T14:54:54.800Z,5.47
2023-03-21T14:57:26.186Z,6.80
2023-03-21T14:59:56.675Z,6.63
2023-03-21T15:02:29.366Z,5.90
2023-03-21T15:05:00.090Z,5.88
2023-03-21T15:07:32.301Z,7.18
2023-03-21T15:10:04.751Z,6.72
2023-03-21T15:12:33.756Z,6.40
2023-03-21T15:15:04.212Z,6.20
2023-03-21T15:17:34.703Z,4.78
2023-03-21T15:20:05.692Z,5.07
2023-03-21T15:22:41.993Z,5.63
2023-03-21T15:25:18.073Z,6.05
2023-03-21T15:27:46.488Z,5.43
2023-03-21T15:30:22.109Z,5.43
2023-03-21T15:32:52.568Z,5.72
2023-03-21T15:35:23.214Z,5.68
2023-03-21T15:37:57.186Z,5.88
2023-03-21T15:40:27.724Z,5.88
2023-03-21T15:43:07.773Z,6.28
2023-03-21T15:45:46.921Z,6.55
2023-03-21T15:48:17.601Z,8.15
2023-03-21T15:50:53.659Z,6.25
2023-03-21T15:53:22.281Z,5.40
2023-03-21T15:55:53.085Z,7.13
2023-03-21T15:58:24.336Z,5.65
2023-03-21T16:00:55.512Z,5.22
2023-03-21T16:03:28.789Z,4.85
2023-03-21T16:06:10.980Z,5.88
2023-03-21T16:08:46.202Z,5.88
2023-03-21T16:11:19.782Z,5.88
2023-03-21T16:13:48.375Z,4.63
2023-03-21T16:16:19.841Z,4.95
2023-03-21T16:18:51.766Z,5.00
2023-03-21T16:21:22.628Z,5.75
2023-03-21T16:23:51.397Z,5.03
2023-03-21T16:26:22.409Z,7.10
2023-03-21T16:28:51.805Z,7.13
2023-03-21T16:31:22.810Z,6.38
2023-03-21T16:33:53.397Z,5.70
2023-03-21T16:36:24.826Z,5.20
2023-03-21T16:38:55.840Z,4.80
2023-03-21T16:41:25.706Z,5.03
2023-03-21T16:43:54.600Z,5.57
2023-03-21T16:46:25.248Z,4.60
2023-03-21T16:48:57.905Z,4.90
2023-03-21T16:51:32.112Z,5.70
2023-03-21T16:54:01.012Z,4.63
2023-03-21T16:56:34.702Z,4.70
2023-03-21T16:59:03.124Z,4.40
2023-03-21T17:01:31.795Z,4.70
2023-03-21T17:04:02.910Z,4.60
2023-03-21T17:06:32.712Z,5.45
2023-03-21T17:09:01.749Z,5.28
2023-03-21T17:11:36.337Z,6.00
2023-03-21T17:14:05.147Z,5.32
2023-03-21T17:16:33.219Z,5.07
2023-03-21T17:19:04.440Z,5.80
2023-03-21T17:21:32.520Z,5.65
2023-03-21T17:24:00.886Z,5.10
2023-03-21T17:26:30.956Z,5.75
2023-03-21T17:28:59.914Z,5.60
2023-03-21T17:31:32.340Z,5.88
2023-03-21T17:34:03.503Z,6.80
2023-03-21T17:36:35.726Z,13.32
2023-03-21T17:39:05.844Z,12.65
2023-03-21T17:41:34.300Z,14.18
2023-03-21T17:44:02.982Z,15.30
2023-03-21T17:46:37.029Z,15.70
2023-03-21T17:49:08.076Z,16.35
2023-03-21T17:51:36.665Z,16.60
2023-03-21T17:54:06.158Z,14.50
2023-03-21T17:56:37.543Z,14.00
2023-03-21T17:59:08.600Z,16.77
2023-03-21T18:01:37.245Z,12.50
2023-03-21T18:04:07.346Z,9.02
2023-03-21T18:06:37.524Z,9.80
2023-03-21T18:09:11.885Z,10.18
2023-03-21T18:11:41.487Z,9.75
2023-03-21T18:14:19.522Z,10.55
2023-03-21T18:16:54.344Z,12.23
2023-03-21T18:19:25.521Z,11.05
2023-03-21T18:21:53.794Z,10.20
2023-03-21T18:24:22.485Z,10.15
2023-03-21T18:26:50.677Z,11.25
2023-03-21T18:30:19.774Z,11.30
2023-03-21T18:32:10.012Z,12.70
2023-03-21T18:34:41.988Z,10.80
2023-03-21T18:37:13.124Z,10.75
2023-03-21T18:39:44.903Z,13.05
2023-03-21T18:42:17.397Z,12.27
2023-03-21T18:44:48.506Z,12.48
2023-03-21T18:47:18.448Z,12.18
2023-03-21T18:50:16.788Z,13.32
2023-03-21T18:52:37.820Z,12.77
2023-03-21T18:55:07.746Z,11.73
2023-03-21T18:57:38.489Z,12.25
2023-03-21T19:00:13.659Z,10.93
2023-03-21T19:04:16.343Z,12.25
2023-03-21T19:06:46.589Z,18.83
2023-03-21T19:09:17.553Z,26.00
2023-03-21T19:11:47.386Z,36.38
2023-03-21T19:14:18.010Z,36.50
2023-03-21T19:17:34.268Z,22.23
2023-03-21T19:20:55.961Z,27.15
2023-03-21T19:23:36.039Z,19.60
2023-03-21T19:26:11.723Z,20.50
2023-03-21T19:28:40.722Z,13.35
2023-03-21T19:31:10.089Z,17.83
2023-03-21T19:33:38.553Z,16.83
2023-03-21T19:36:17.903Z,13.68
2023-03-21T19:38:51.081Z,11.60
2023-03-21T19:41:20.358Z,13.43
2023-03-21T19:43:54.732Z,14.98
2023-03-21T19:46:51.542Z,16.88
2023-03-21T19:49:26.170Z,13.80
2023-03-21T19:52:00.346Z,15.98
2023-03-21T19:54:30.446Z,14.05
2023-03-21T19:56:59.764Z,15.77
2023-03-21T19:59:28.620Z,18.02
2023-03-21T20:02:09.306Z,14.90
2023-03-21T20:04:46.262Z,15.80
2023-03-21T20:07:14.723Z,15.52
2023-03-21T20:09:51.915Z,14.90
2023-03-21T20:12:21.984Z,14.25
2023-03-21T20:14:56.001Z,14.18
2023-03-21T20:17:33.442Z,13.05
2023-03-21T20:20:01.661Z,14.02
2023-03-21T20:22:58.867Z,12.73
2023-03-21T20:25:19.546Z,14.35
2023-03-21T20:27:47.969Z,14.98
2023-03-21T20:30:20.153Z,13.85
2023-03-21T20:32:49.616Z,14.85
2023-03-21T20:35:28.908Z,14.07
2023-03-21T20:38:09.738Z,13.27
2023-03-21T20:40:40.802Z,14.35
2023-03-21T20:43:55.641Z,12.93
2023-03-21T20:46:03.045Z,13.90
2023-03-21T20:48:31.671Z,13.38
2023-03-21T20:51:45.081Z,13.70
2023-03-21T20:53:50.801Z,14.10
2023-03-21T20:56:22.804Z,13.57
2023-03-21T20:59:07.931Z,13.40
2023-03-21T21:01:40.667Z,13.60
2023-03-21T21:04:09.557Z,13.68
2023-03-21T21:06:38.756Z,13.13
2023-03-21T21:09:06.837Z,12.25
2023-03-21T21:14:25.742Z,12.25
2023-03-21T21:16:54.723Z,13.15
2023-03-21T21:19:23.037Z,13.52
2023-03-21T21:21:51.246Z,13.70
2023-03-21T21:24:19.403Z,14.93
2023-03-21T21:26:49.606Z,13.73
2023-03-21T21:29:19.070Z,13.45
2023-03-21T21:31:49.157Z,14.20
2023-03-21T21:34:18.715Z,13.57
2023-03-21T21:36:47.455Z,13.48
2023-03-21T21:39:16.158Z,12.85
2023-03-21T21:41:44.430Z,12.82
2023-03-21T21:44:14.080Z,11.98
2023-03-21T21:46:43.024Z,14.63
2023-03-21T21:49:11.696Z,13.70
2023-03-21T21:51:41.897Z,11.88
2023-03-21T21:54:10.208Z,12.55
2023-03-21T21:56:38.652Z,12.70
2023-03-21T21:59:07.286Z,12.05
2023-03-21T22:01:38.869Z,15.30
2023-03-21T22:04:08.502Z,14.55
2023-03-21T22:06:36.905Z,13.57
2023-03-21T22:09:07.098Z,12.13
2023-03-21T22:11:35.825Z,13.95
2023-03-21T22:14:04.514Z,12.52
2023-03-21T22:16:33.186Z,15.27
2023-03-21T22:19:02.965Z,14.35
2023-03-21T22:21:31.124Z,12.98
2023-03-21T22:23:59.258Z,38.95
2023-03-21T22:26:27.693Z,39.80
2023-03-21T22:28:56.154Z,36.10
2023-03-21T22:31:26.059Z,35.78
2023-03-21T22:33:54.063Z,26.52
2023-03-21T22:36:23.461Z,14.38
2023-03-21T22:38:51.835Z,12.02
2023-03-21T22:41:20.181Z,11.88
2023-03-21T22:43:48.159Z,11.13
2023-03-21T22:46:16.994Z,10.60
2023-03-21T22:48:45.493Z,9.02
2023-03-21T22:51:14.021Z,9.35
2023-03-21T22:53:43.861Z,9.98
2023-03-21T22:56:12.042Z,10.75
2023-03-21T22:58:40.033Z,9.65
2023-03-21T23:01:08.882Z,11.68
2023-03-21T23:03:37.408Z,14.77
2023-03-21T23:06:06.587Z,11.68
2023-03-21T23:08:34.802Z,12.07
2023-03-21T23:11:08.828Z,11.93
2023-03-21T23:13:37.537Z,12.40
2023-03-21T23:16:06.105Z,11.10
2023-03-21T23:18:37.055Z,12.90
2023-03-21T23:21:13.334Z,11.75
2023-03-21T23:23:43.878Z,12.02
2023-03-21T23:26:14.074Z,12.20
2023-03-21T23:28:42.307Z,14.50
2023-03-21T23:31:12.197Z,16.50
2023-03-21T23:33:40.652Z,17.80
2023-03-21T23:36:10.707Z,16.65
2023-03-21T23:38:39.568Z,15.38
2023-03-21T23:41:09.952Z,14.15
2023-03-21T23:43:39.854Z,15.50
2023-03-21T23:46:08.625Z,15.48
2023-03-21T23:48:37.003Z,16.60
2023-03-21T23:51:05.534Z,15.70
2023-03-21T23:53:34.573Z,14.88
2023-03-21T23:56:02.638Z,15.95
2023-03-21T23:58:33.060Z,16.55
